createdAt,value
2022-08-11T00:01:12.638Z,7.07
2022-08-11T00:03:44.046Z,6.10
2022-08-11T00:06:13.973Z,4.63
2022-08-11T00:08:42.785Z,6.77
2022-08-11T00:11:12.602Z,3.20
2022-08-11T00:13:41.713Z,5.83
2022-08-11T00:16:14.714Z,4.40
2022-08-11T00:18:44.335Z,3.53
2022-08-11T00:21:12.251Z,3.80
2022-08-11T00:23:47.980Z,3.57
2022-08-11T00:26:17.704Z,3.80
2022-08-11T00:28:45.619Z,4.10
2022-08-11T00:31:24.018Z,3.90
2022-08-11T00:33:52.294Z,3.47
2022-08-11T00:36:25.324Z,4.20
2022-08-11T00:38:54.499Z,4.00
2022-08-11T00:41:32.644Z,3.70
2022-08-11T00:44:24.225Z,3.40
2022-08-11T00:46:58.496Z,3.40
2022-08-11T00:49:32.138Z,3.70
2022-08-11T00:52:06.503Z,3.50
2022-08-11T00:54:55.226Z,3.43
2022-08-11T00:57:38.617Z,3.80
2022-08-11T01:00:12.838Z,2.90
2022-08-11T01:02:46.961Z,3.00
2022-08-11T01:05:38.807Z,11.30
2022-08-11T01:08:24.133Z,5.67
2022-08-11T01:11:14.018Z,3.37
2022-08-11T01:13:56.433Z,3.93
2022-08-11T01:16:45.436Z,3.10
2022-08-11T01:20:44.809Z,4.93
2022-08-11T01:22:55.719Z,3.27
2022-08-11T01:25:56.743Z,3.30
2022-08-11T01:28:46.612Z,3.20
2022-08-11T01:31:39.599Z,3.40
2022-08-11T01:34:32.260Z,3.17
2022-08-11T01:37:12.942Z,3.70
2022-08-11T01:40:08.414Z,4.07
2022-08-11T01:43:07.634Z,2.90
2022-08-11T01:45:37.791Z,3.30
2022-08-11T01:48:09.914Z,3.17
2022-08-11T01:50:55.077Z,3.17
2022-08-11T01:53:29.379Z,3.00
2022-08-11T01:56:02.914Z,3.70
2022-08-11T01:58:43.578Z,3.50
2022-08-11T02:01:29.046Z,3.00
2022-08-11T02:03:59.703Z,3.00
2022-08-11T02:06:49.160Z,3.23
2022-08-11T02:09:21.507Z,3.97
2022-08-11T02:11:51.522Z,3.33
2022-08-11T02:14:25.530Z,3.13
2022-08-11T02:16:58.135Z,3.43
2022-08-11T02:19:50.709Z,3.83
2022-08-11T02:22:41.288Z,3.30
2022-08-11T02:25:12.592Z,4.00
2022-08-11T02:27:49.102Z,4.10
2022-08-11T02:30:17.917Z,3.13
2022-08-11T02:33:07.006Z,3.73
2022-08-11T02:35:42.674Z,3.70
2022-08-11T02:38:15.696Z,4.03
2022-08-11T02:40:49.372Z,4.03
2022-08-11T02:43:22.743Z,4.10
2022-08-11T02:45:54.877Z,4.10
2022-08-11T02:48:50.565Z,4.13
2022-08-11T02:51:21.985Z,3.70
2022-08-11T02:53:56.439Z,3.30
2022-08-11T02:56:32.790Z,3.63
2022-08-11T02:59:21.562Z,3.97
2022-08-11T03:01:50.935Z,3.93
2022-08-11T03:04:21.715Z,4.10
2022-08-11T03:06:51.215Z,4.13
2022-08-11T03:09:20.325Z,3.60
2022-08-11T03:12:14.618Z,3.93
2022-08-11T03:15:05.751Z,4.00
2022-08-11T03:17:34.982Z,3.80
2022-08-11T03:20:16.578Z,3.73
2022-08-11T03:22:50.318Z,4.13
2022-08-11T03:25:30.492Z,3.60
2022-08-11T03:28:05.238Z,4.07
2022-08-11T03:30:40.750Z,3.97
2022-08-11T03:33:33.712Z,3.80
2022-08-11T03:36:07.072Z,3.60
2022-08-11T03:38:45.385Z,3.80
2022-08-11T03:42:02.366Z,3.87
2022-08-11T03:44:35.427Z,3.83
2022-08-11T03:47:18.608Z,4.30
2022-08-11T03:49:55.073Z,4.50
2022-08-11T03:52:27.156Z,4.30
2022-08-11T03:54:59.283Z,4.70
2022-08-11T03:57:47.963Z,4.60
2022-08-11T04:00:31.204Z,4.50
2022-08-11T04:03:11.575Z,5.57
2022-08-11T04:06:09.159Z,4.53
2022-08-11T04:08:55.646Z,5.40
2022-08-11T04:11:41.807Z,5.10
2022-08-11T04:14:48.840Z,4.90
2022-08-11T04:17:30.555Z,5.50
2022-08-11T04:20:12.464Z,4.90
2022-08-11T04:22:55.208Z,5.30
2022-08-11T04:25:31.744Z,5.50
2022-08-11T04:28:28.529Z,4.77
2022-08-11T04:31:05.559Z,5.30
2022-08-11T04:34:00.878Z,5.53
2022-08-11T04:37:10.054Z,4.97
2022-08-11T04:39:49.406Z,4.93
2022-08-11T04:42:59.282Z,4.90
2022-08-11T04:45:41.562Z,4.60
2022-08-11T04:48:57.783Z,5.97
2022-08-11T04:51:55.638Z,5.57
2022-08-11T04:54:45.252Z,5.43
2022-08-11T04:57:37.650Z,5.67
2022-08-11T05:00:26.285Z,5.90
2022-08-11T05:03:09.052Z,6.30
2022-08-11T05:05:56.790Z,7.20
2022-08-11T05:08:52.006Z,5.63
2022-08-11T05:11:31.638Z,6.40
2022-08-11T05:14:33.165Z,5.97
2022-08-11T05:17:22.757Z,6.57
2022-08-11T05:20:08.998Z,6.83
2022-08-11T05:22:55.393Z,6.90
2022-08-11T05:26:46.347Z,6.00
2022-08-11T05:28:51.958Z,6.20
2022-08-11T05:31:39.911Z,6.07
2022-08-11T05:34:28.179Z,5.97
2022-08-11T05:37:17.195Z,5.97
2022-08-11T05:40:04.790Z,6.23
2022-08-11T05:42:51.490Z,7.20
2022-08-11T05:46:02.503Z,7.27
2022-08-11T05:48:49.313Z,6.47
2022-08-11T05:51:34.499Z,6.13
2022-08-11T05:54:28.915Z,7.07
2022-08-11T05:56:59.857Z,7.13
2022-08-11T05:59:29.407Z,6.17
2022-08-11T06:02:02.806Z,6.90
2022-08-11T06:04:31.568Z,6.90
2022-08-11T06:07:00.450Z,6.50
2022-08-11T06:09:29.195Z,7.30
2022-08-11T06:11:59.275Z,6.30
2022-08-11T06:14:26.959Z,6.50
2022-08-11T06:16:56.805Z,7.10
2022-08-11T06:19:32.275Z,6.77
2022-08-11T06:22:00.459Z,7.20
2022-08-11T06:24:29.189Z,6.83
2022-08-11T06:27:13.821Z,7.07
2022-08-11T06:29:54.528Z,6.10
2022-08-11T06:32:31.219Z,6.43
2022-08-11T06:35:04.459Z,7.13
2022-08-11T06:37:42.261Z,7.13
2022-08-11T06:40:13.031Z,8.53
2022-08-11T06:42:49.147Z,7.30
2022-08-11T06:45:21.919Z,7.20
2022-08-11T06:47:49.615Z,6.40
2022-08-11T06:50:38.208Z,6.83
2022-08-11T06:53:06.803Z,6.53
2022-08-11T06:55:56.052Z,6.00
2022-08-11T06:58:45.502Z,6.80
2022-08-11T07:01:14.235Z,5.63
2022-08-11T07:03:44.667Z,6.10
2022-08-11T07:06:23.424Z,6.70
2022-08-11T07:09:29.206Z,7.77
2022-08-11T07:12:32.688Z,6.90
2022-08-11T07:15:21.083Z,5.60
2022-08-11T07:18:11.330Z,5.87
2022-08-11T07:21:01.873Z,5.90
2022-08-11T07:23:52.094Z,4.90
2022-08-11T07:26:38.248Z,5.00
2022-08-11T07:29:07.642Z,5.10
2022-08-11T07:31:37.120Z,5.87
2022-08-11T07:34:16.065Z,5.40
2022-08-11T07:36:48.359Z,4.90
2022-08-11T07:39:19.992Z,4.57
2022-08-11T07:41:48.413Z,4.60
2022-08-11T07:44:17.091Z,4.80
2022-08-11T07:47:04.011Z,4.80
2022-08-11T07:49:50.446Z,5.20
2022-08-11T07:52:32.353Z,4.53
2022-08-11T07:55:02.516Z,11.63
2022-08-11T07:58:15.887Z,4.50
2022-08-11T08:00:56.731Z,4.93
2022-08-11T08:03:53.956Z,4.43
2022-08-11T08:06:40.090Z,5.37
2022-08-11T08:09:26.530Z,4.37
2022-08-11T08:12:13.538Z,3.97
2022-08-11T08:15:01.255Z,4.47
2022-08-11T08:18:09.014Z,3.90
2022-08-11T08:20:37.532Z,3.90
2022-08-11T08:23:06.235Z,4.20
2022-08-11T08:25:35.296Z,4.40
2022-08-11T08:28:06.518Z,5.40
2022-08-11T08:30:50.993Z,4.70
2022-08-11T08:33:20.839Z,4.53
2022-08-11T08:35:55.616Z,4.13
2022-08-11T08:38:24.461Z,4.30
2022-08-11T08:40:55.763Z,5.00
2022-08-11T08:43:26.168Z,4.73
2022-08-11T08:45:56.767Z,4.43
2022-08-11T08:48:25.726Z,4.57
2022-08-11T08:51:12.082Z,4.03
2022-08-11T08:53:53.291Z,5.40
2022-08-11T08:56:28.496Z,4.70
2022-08-11T08:58:58.121Z,5.13
2022-08-11T09:01:26.566Z,4.53
2022-08-11T09:04:04.767Z,6.07
2022-08-11T09:06:36.287Z,3.83
2022-08-11T09:09:05.494Z,4.10
2022-08-11T09:11:51.199Z,6.23
2022-08-11T09:14:21.492Z,3.80
2022-08-11T09:16:50.036Z,3.23
2022-08-11T09:19:18.770Z,2.83
2022-08-11T09:22:07.818Z,3.80
2022-08-11T09:24:54.312Z,3.30
2022-08-11T09:27:22.851Z,3.90
2022-08-11T09:29:52.568Z,3.00
2022-08-11T09:32:21.386Z,5.80
2022-08-11T09:34:51.964Z,6.13
2022-08-11T09:37:55.569Z,2.93
2022-08-11T09:40:31.315Z,4.83
2022-08-11T09:43:18.755Z,6.20
2022-08-11T09:45:51.567Z,7.60
2022-08-11T09:48:20.120Z,4.53
2022-08-11T09:50:49.643Z,3.00
2022-08-11T09:53:36.808Z,3.40
2022-08-11T09:56:26.706Z,4.03
2022-08-11T09:58:54.670Z,3.50
2022-08-11T10:01:30.175Z,4.53
2022-08-11T10:04:00.986Z,3.90
2022-08-11T10:06:48.023Z,2.87
2022-08-11T10:09:24.319Z,3.23
2022-08-11T10:11:57.786Z,3.13
2022-08-11T10:14:44.907Z,3.70
2022-08-11T10:17:15.582Z,3.37
2022-08-11T10:19:44.722Z,3.00
2022-08-11T10:22:48.837Z,3.70
2022-08-11T10:25:35.860Z,3.00
2022-08-11T10:28:29.044Z,3.20
2022-08-11T10:31:12.626Z,3.07
2022-08-11T10:34:10.212Z,2.60
2022-08-11T10:36:44.954Z,3.23
2022-08-11T10:39:17.228Z,4.50
2022-08-11T10:42:09.611Z,3.37
2022-08-11T10:44:42.463Z,3.60
2022-08-11T10:47:30.044Z,3.10
2022-08-11T10:50:17.036Z,3.10
2022-08-11T10:53:03.367Z,3.90
2022-08-11T10:55:48.969Z,3.60
2022-08-11T10:58:35.050Z,3.63
2022-08-11T11:01:03.184Z,3.60
2022-08-11T11:03:32.124Z,2.93
2022-08-11T11:06:28.870Z,3.00
2022-08-11T11:09:00.049Z,3.40
2022-08-11T11:11:45.656Z,3.43
2022-08-11T11:14:33.170Z,3.87
2022-08-11T11:17:36.761Z,3.50
2022-08-11T11:20:05.473Z,3.67
2022-08-11T11:22:41.030Z,3.80
2022-08-11T11:25:18.736Z,4.90
2022-08-11T11:27:52.173Z,5.27
2022-08-11T11:30:20.201Z,4.70
2022-08-11T11:32:54.686Z,4.63
2022-08-11T11:35:27.802Z,3.90
2022-08-11T11:38:04.292Z,3.10
2022-08-11T11:40:33.824Z,4.00
2022-08-11T11:43:01.903Z,3.80
2022-08-11T11:45:30.198Z,3.20
2022-08-11T11:47:59.567Z,4.47
2022-08-11T11:50:31.770Z,3.83
2022-08-11T11:53:05.048Z,4.10
2022-08-11T11:55:32.852Z,3.00
2022-08-11T11:58:19.647Z,4.10
2022-08-11T12:01:08.656Z,3.50
2022-08-11T12:03:37.901Z,3.47
2022-08-11T12:06:05.875Z,2.93
2022-08-11T12:08:35.659Z,2.67
2022-08-11T12:11:22.442Z,3.10
2022-08-11T12:13:51.185Z,2.57
2022-08-11T12:16:33.268Z,2.77
2022-08-11T12:19:06.932Z,2.77
2022-08-11T12:21:36.436Z,3.83
2022-08-11T12:24:29.499Z,3.97
2022-08-11T12:27:17.814Z,4.87
2022-08-11T12:29:51.320Z,4.10
2022-08-11T12:32:24.215Z,4.87
2022-08-11T12:34:52.322Z,3.47
2022-08-11T12:37:23.679Z,4.33
2022-08-11T12:40:43.549Z,2.33
2022-08-11T12:43:20.709Z,3.60
2022-08-11T12:45:52.794Z,2.90
2022-08-11T12:49:00.532Z,2.33
2022-08-11T12:52:14.112Z,4.07
2022-08-11T12:54:36.118Z,3.47
2022-08-11T12:57:37.068Z,2.60
2022-08-11T13:00:24.575Z,4.03
2022-08-11T13:03:11.299Z,2.10
2022-08-11T13:05:45.136Z,3.13
2022-08-11T13:08:15.062Z,2.67
2022-08-11T13:11:01.575Z,4.03
2022-08-11T13:13:55.501Z,3.00
2022-08-11T13:16:19.908Z,2.57
2022-08-11T13:18:47.997Z,2.87
2022-08-11T13:21:20.339Z,3.23
2022-08-11T13:24:01.601Z,3.17
2022-08-11T13:26:36.925Z,3.20
2022-08-11T13:29:18.654Z,3.90
2022-08-11T13:31:47.151Z,3.13
2022-08-11T13:34:15.892Z,2.20
2022-08-11T13:36:44.991Z,3.27
2022-08-11T13:39:13.331Z,4.10
2022-08-11T13:41:43.939Z,2.80
2022-08-11T13:44:12.997Z,2.77
2022-08-11T13:46:45.716Z,2.30
2022-08-11T13:49:17.129Z,2.50
2022-08-11T13:51:45.251Z,2.60
2022-08-11T13:54:17.758Z,2.10
2022-08-11T13:56:47.747Z,2.80
2022-08-11T13:59:16.485Z,2.40
2022-08-11T14:02:22.364Z,2.53
2022-08-11T14:04:40.315Z,2.90
2022-08-11T14:07:10.040Z,3.80
2022-08-11T14:09:40.621Z,2.73
2022-08-11T14:12:28.040Z,2.63
2022-08-11T14:15:04.489Z,2.40
2022-08-11T14:17:48.722Z,3.30
2022-08-11T14:20:39.907Z,3.30
2022-08-11T14:23:05.591Z,5.10
2022-08-11T14:26:00.590Z,3.63
2022-08-11T14:28:31.886Z,3.30
2022-08-11T14:31:05.158Z,2.50
2022-08-11T14:33:58.355Z,3.20
2022-08-11T14:36:24.721Z,2.70
2022-08-11T14:38:54.476Z,2.30
2022-08-11T14:42:10.862Z,10.23
2022-08-11T14:44:46.327Z,1.87
2022-08-11T14:47:23.782Z,3.17
2022-08-11T14:50:08.215Z,2.30
2022-08-11T14:52:40.230Z,2.60
2022-08-11T14:55:26.512Z,3.77
2022-08-11T14:57:56.697Z,1.90
2022-08-11T15:00:25.113Z,2.47
2022-08-11T15:03:10.486Z,3.23
2022-08-11T15:05:54.228Z,2.63
2022-08-11T15:08:42.801Z,2.90
2022-08-11T15:11:32.249Z,2.70
2022-08-11T15:14:01.778Z,2.10
2022-08-11T15:16:47.173Z,2.03
2022-08-11T15:19:16.304Z,2.50
2022-08-11T15:22:02.743Z,2.43
2022-08-11T15:24:30.906Z,2.40
2022-08-11T15:27:17.171Z,3.90
2022-08-11T15:30:03.091Z,2.53
2022-08-11T15:32:50.503Z,2.70
2022-08-11T15:35:38.990Z,4.40
2022-08-11T15:38:12.622Z,2.20
2022-08-11T15:40:58.563Z,3.33
2022-08-11T15:43:44.972Z,2.20
2022-08-11T15:46:14.138Z,2.00
2022-08-11T15:48:44.066Z,3.10
2022-08-11T15:51:13.351Z,3.67
2022-08-11T15:53:44.460Z,2.80
2022-08-11T15:56:25.670Z,2.30
2022-08-11T15:59:42.342Z,3.17
2022-08-11T16:02:27.906Z,2.10
2022-08-11T16:04:57.111Z,3.03
2022-08-11T16:07:27.703Z,2.07
2022-08-11T16:10:00.867Z,2.20
2022-08-11T16:12:29.795Z,2.43
2022-08-11T16:15:20.316Z,1.63
2022-08-11T16:17:50.817Z,1.97
2022-08-11T16:20:21.981Z,1.70
2022-08-11T16:23:00.419Z,2.50
2022-08-11T16:27:02.158Z,2.90
2022-08-11T16:28:22.983Z,2.43
2022-08-11T16:30:51.219Z,2.20
2022-08-11T16:33:22.596Z,2.30
2022-08-11T16:36:26.951Z,3.07
2022-08-11T16:38:54.941Z,6.90
2022-08-11T16:41:38.941Z,3.07
2022-08-11T16:44:32.810Z,2.50
2022-08-11T16:47:06.624Z,2.90
2022-08-11T16:49:36.051Z,2.50
2022-08-11T16:52:05.326Z,2.07
2022-08-11T16:54:33.655Z,2.50
2022-08-11T16:57:36.854Z,5.37
2022-08-11T17:00:07.253Z,2.40
2022-08-11T17:02:55.391Z,2.03
2022-08-11T17:05:54.379Z,2.60
2022-08-11T17:08:44.552Z,2.37
2022-08-11T17:11:42.565Z,2.00
2022-08-11T17:14:14.089Z,2.23
2022-08-11T17:16:42.178Z,2.00
2022-08-11T17:19:10.977Z,2.20
2022-08-11T17:22:01.079Z,2.10
2022-08-11T17:24:32.361Z,2.27
2022-08-11T17:27:00.724Z,2.60
2022-08-11T17:29:31.699Z,2.40
2022-08-11T17:32:18.034Z,2.30
2022-08-11T17:35:04.675Z,2.20
2022-08-11T17:37:33.419Z,2.63
2022-08-11T17:40:02.378Z,2.40
2022-08-11T17:42:48.762Z,2.00
2022-08-11T17:45:36.750Z,5.47
2022-08-11T17:48:23.177Z,3.83
2022-08-11T17:50:52.281Z,2.90
2022-08-11T17:53:37.630Z,2.57
2022-08-11T17:56:24.446Z,2.40
2022-08-11T17:59:12.040Z,3.00
2022-08-11T18:01:42.322Z,2.50
2022-08-11T18:04:12.457Z,2.50
2022-08-11T18:06:41.750Z,3.07
2022-08-11T18:09:30.925Z,3.00
2022-08-11T18:12:18.479Z,3.23
2022-08-11T18:15:05.092Z,8.07
2022-08-11T18:17:53.017Z,7.83
2022-08-11T18:20:40.440Z,4.60
2022-08-11T18:23:40.600Z,7.60
2022-08-11T18:26:35.097Z,6.07
2022-08-11T18:29:21.126Z,6.90
2022-08-11T18:32:09.023Z,5.63
2022-08-11T18:34:58.946Z,4.80
2022-08-11T18:37:48.139Z,5.27
2022-08-11T18:40:36.253Z,4.00
2022-08-11T18:43:27.337Z,3.47
2022-08-11T18:46:16.339Z,4.10
2022-08-11T18:49:06.999Z,3.20
2022-08-11T18:51:59.055Z,3.93
2022-08-11T18:54:44.612Z,3.20
2022-08-11T18:57:32.666Z,3.67
2022-08-11T19:00:24.382Z,3.40
2022-08-11T19:03:10.337Z,4.60
2022-08-11T19:06:37.354Z,6.60
2022-08-11T19:09:07.364Z,3.30
2022-08-11T19:11:53.467Z,3.63
2022-08-11T19:14:39.850Z,3.30
2022-08-11T19:17:45.125Z,8.00
2022-08-11T19:20:35.172Z,5.77
2022-08-11T19:23:21.676Z,5.27
2022-08-11T19:26:08.614Z,4.47
2022-08-11T19:28:55.537Z,4.57
2022-08-11T19:31:44.663Z,4.60
2022-08-11T19:34:32.483Z,5.23
2022-08-11T19:37:20.819Z,3.50
2022-08-11T19:40:10.438Z,4.00
2022-08-11T19:42:57.816Z,4.87
2022-08-11T19:45:43.278Z,4.67
2022-08-11T19:48:36.178Z,11.53
2022-08-11T19:51:22.020Z,16.33
2022-08-11T19:54:08.670Z,15.20
2022-08-11T19:56:55.340Z,11.13
2022-08-11T19:59:43.300Z,6.57
2022-08-11T20:02:29.041Z,7.53
2022-08-11T20:05:14.208Z,6.80
2022-08-11T20:08:00.389Z,6.70
2022-08-11T20:10:46.878Z,7.67
2022-08-11T20:13:32.806Z,8.90
2022-08-11T20:16:20.919Z,10.33
2022-08-11T20:19:09.017Z,8.03
2022-08-11T20:21:54.798Z,10.70
2022-08-11T20:24:41.276Z,8.00
2022-08-11T20:27:27.367Z,6.87
2022-08-11T20:30:14.524Z,5.10
2022-08-11T20:33:01.602Z,5.47
2022-08-11T20:35:48.071Z,5.30
2022-08-11T20:38:34.700Z,6.60
2022-08-11T20:41:20.771Z,6.20
2022-08-11T20:44:09.386Z,5.70
2022-08-11T20:50:04.372Z,5.00
2022-08-11T20:52:50.840Z,6.80
2022-08-11T20:55:46.331Z,8.00
2022-08-11T21:01:45.927Z,6.20
2022-08-11T21:04:32.469Z,5.10
2022-08-11T21:10:28.652Z,3.50
2022-08-11T21:13:26.223Z,5.00
2022-08-11T21:16:12.190Z,4.80
2022-08-11T21:19:11.321Z,4.30
2022-08-11T21:21:57.163Z,3.80
2022-08-11T21:24:46.882Z,4.17
2022-08-11T21:27:35.483Z,4.27
2022-08-11T21:30:21.212Z,4.70
2022-08-11T21:33:07.607Z,4.00
2022-08-11T21:35:54.557Z,5.33
2022-08-11T21:38:40.042Z,4.10
2022-08-11T21:41:28.921Z,4.13
2022-08-11T21:44:14.393Z,4.93
2022-08-11T21:47:00.186Z,4.30
2022-08-11T21:49:46.267Z,5.10
2022-08-11T21:52:32.167Z,5.10
2022-08-11T21:55:18.148Z,4.50
2022-08-11T21:58:06.039Z,5.67
2022-08-11T22:00:52.349Z,4.50
2022-08-11T22:03:49.847Z,4.90
2022-08-11T22:06:36.310Z,3.93
2022-08-11T22:09:22.611Z,3.50
2022-08-11T22:12:29.537Z,3.97
2022-08-11T22:15:14.790Z,3.83
2022-08-11T22:18:00.510Z,3.73
2022-08-11T22:20:46.892Z,5.10
2022-08-11T22:23:36.343Z,4.07
2022-08-11T22:26:22.833Z,4.73
2022-08-11T22:29:08.383Z,5.40
2022-08-11T22:31:56.467Z,4.67
2022-08-11T22:34:52.785Z,7.27
2022-08-11T22:37:39.614Z,9.07
2022-08-11T22:40:25.609Z,4.33
2022-08-11T22:43:10.896Z,4.83
2022-08-11T22:45:56.000Z,4.80
2022-08-11T22:48:45.011Z,4.93
2022-08-11T22:51:31.288Z,6.20
2022-08-11T22:54:18.787Z,4.00
2022-08-11T22:57:04.045Z,4.40
2022-08-11T22:59:49.918Z,4.33
2022-08-11T23:02:35.156Z,3.90
2022-08-11T23:05:23.152Z,4.70
2022-08-11T23:08:08.402Z,3.83
2022-08-11T23:10:54.687Z,4.40
2022-08-11T23:13:39.732Z,5.20
2022-08-11T23:16:24.885Z,4.47
2022-08-11T23:19:12.450Z,4.27
2022-08-11T23:21:59.231Z,3.97
2022-08-11T23:24:44.959Z,4.70
2022-08-11T23:27:30.942Z,4.03
2022-08-11T23:30:18.921Z,4.07
2022-08-11T23:33:05.597Z,3.80
2022-08-11T23:35:56.757Z,3.90
2022-08-11T23:38:49.035Z,4.37
2022-08-11T23:41:34.782Z,3.90
2022-08-11T23:44:20.517Z,3.63
2022-08-11T23:47:07.262Z,4.13
2022-08-11T23:49:54.178Z,3.73
2022-08-11T23:52:40.053Z,4.07
2022-08-11T23:55:28.329Z,3.97
2022-08-11T23:58:13.658Z,4.20
